Time;durP1;ratioP1;P1;durP2;ratioP2;P2;SDS_P1;SDS_P2;PMS_P1;PMS_P2;Temp;Humidity;BMP_temperature;BMP_pressure;BME280_temperature;BME280_humidity;BME280_pressure;Samples;Min_cycle;Max_cycle;Signal;HPM_P1;HPM_P2
2023/10/21 00:00:32;;;;;;;2.13;0.93;;;14.50;99.90;;;;;;5053795;28;20489;-68
2023/10/21 00:02:59;;;;;;;1.50;0.60;;;14.40;99.90;;;;;;5055642;28;20481;-69
2023/10/21 00:05:27;;;;;;;1.60;0.70;;;14.40;99.90;;;;;;5054477;28;20475;-67
2023/10/21 00:07:54;;;;;;;5.87;0.73;;;14.40;99.90;;;;;;5055330;28;20849;-69
2023/10/21 00:10:21;;;;;;;3.60;0.80;;;14.30;99.90;;;;;;5054535;28;20482;-67
2023/10/21 00:12:48;;;;;;;2.10;0.60;;;14.20;99.90;;;;;;5055302;28;20961;-70
2023/10/21 00:15:15;;;;;;;1.50;0.60;;;14.30;99.90;;;;;;5052512;28;21133;-71
2023/10/21 00:17:41;;;;;;;3.87;0.80;;;14.10;99.90;;;;;;5052670;28;20479;-69
2023/10/21 00:20:09;;;;;;;2.97;0.73;;;14.40;99.90;;;;;;5054134;28;20479;-69
2023/10/21 00:22:37;;;;;;;1.47;0.50;;;14.40;99.90;;;;;;5050869;28;20479;-69
2023/10/21 00:25:05;;;;;;;2.57;1.03;;;14.50;99.90;;;;;;5052138;28;20651;-66
2023/10/21 00:27:32;;;;;;;1.53;0.60;;;14.50;99.90;;;;;;5083397;28;20475;-69
2023/10/21 00:29:59;;;;;;;2.50;0.70;;;14.40;99.90;;;;;;5053590;28;20573;-66
2023/10/21 00:32:25;;;;;;;3.10;0.93;;;14.40;99.90;;;;;;5058953;28;21039;-68
2023/10/21 00:34:52;;;;;;;2.47;0.97;;;14.40;99.90;;;;;;5052704;28;21312;-69
2023/10/21 00:37:19;;;;;;;1.50;0.50;;;14.40;99.90;;;;;;5056752;28;20497;-68
2023/10/21 00:39:47;;;;;;;1.67;0.63;;;14.40;99.90;;;;;;5062953;28;20485;-69
2023/10/21 00:42:14;;;;;;;1.50;0.57;;;14.40;99.90;;;;;;5052393;28;20470;-65
2023/10/21 00:44:41;;;;;;;1.50;0.60;;;14.40;99.90;;;;;;5026466;28;20517;-69
2023/10/21 00:47:08;;;;;;;1.50;0.50;;;14.30;99.90;;;;;;5051821;28;20995;-70
2023/10/21 00:49:35;;;;;;;1.70;0.70;;;14.40;99.90;;;;;;5049392;28;20618;-68
2023/10/21 00:52:04;;;;;;;1.50;0.70;;;14.40;99.90;;;;;;5048521;28;20939;-66
2023/10/21 00:54:31;;;;;;;2.60;0.90;;;14.40;99.90;;;;;;5071279;28;20546;-68
2023/10/21 00:56:59;;;;;;;2.17;0.70;;;14.30;99.90;;;;;;5053305;28;20475;-71
2023/10/21 00:59:26;;;;;;;2.10;0.87;;;14.40;99.90;;;;;;5057266;28;20979;-66
2023/10/21 01:01:53;;;;;;;1.90;0.70;;;14.50;99.90;;;;;;5061985;28;21247;-69
2023/10/21 01:04:21;;;;;;;1.60;0.70;;;14.40;99.90;;;;;;5080968;28;20932;-66
2023/10/21 01:06:48;;;;;;;2.00;0.80;;;14.50;99.90;;;;;;5054901;28;20502;-66
2023/10/21 01:09:15;;;;;;;1.50;0.60;;;14.50;99.90;;;;;;5058158;28;20539;-65
2023/10/21 01:11:42;;;;;;;1.50;0.60;;;14.60;99.90;;;;;;5060216;28;20491;-67
2023/10/21 01:14:10;;;;;;;1.70;0.67;;;14.60;99.90;;;;;;5059583;28;20576;-68
2023/10/21 01:16:37;;;;;;;1.50;0.60;;;14.60;99.90;;;;;;5083115;28;20972;-64
2023/10/21 01:19:06;;;;;;;1.60;0.80;;;14.60;99.90;;;;;;5081458;28;20473;-66
2023/10/21 01:21:33;;;;;;;1.50;0.60;;;14.70;99.90;;;;;;5057063;28;20579;-67
2023/10/21 01:24:01;;;;;;;1.60;0.70;;;14.70;99.90;;;;;;5079187;28;20564;-67
2023/10/21 01:26:28;;;;;;;2.03;0.70;;;14.50;99.90;;;;;;5048653;28;21067;-66
2023/10/21 01:28:54;;;;;;;3.10;1.43;;;14.60;99.90;;;;;;5055984;28;20558;-65
2023/10/21 01:31:21;;;;;;;1.97;0.70;;;14.60;99.90;;;;;;5058269;28;20561;-68
2023/10/21 01:33:48;;;;;;;2.73;1.30;;;14.50;99.90;;;;;;5069856;28;20469;-67
2023/10/21 01:36:15;;;;;;;2.20;0.90;;;14.70;99.90;;;;;;5073369;28;22457;-67
2023/10/21 01:38:42;;;;;;;1.60;0.73;;;14.60;99.90;;;;;;5061287;28;20475;-66
2023/10/21 01:41:10;;;;;;;3.43;1.47;;;14.80;99.90;;;;;;5061145;28;20533;-66
2023/10/21 01:43:37;;;;;;;1.73;0.90;;;14.80;99.90;;;;;;5060598;28;20479;-67
2023/10/21 01:46:05;;;;;;;1.77;0.97;;;14.80;99.90;;;;;;5062426;28;20477;-68
2023/10/21 01:48:31;;;;;;;2.10;0.90;;;14.80;99.90;;;;;;5061196;28;20471;-66
2023/10/21 01:51:04;;;;;;;2.00;0.80;;;14.90;99.90;;;;;;5061837;28;20522;-67
2023/10/21 01:53:32;;;;;;;2.80;0.83;;;14.90;99.90;;;;;;5061727;28;20485;-66
2023/10/21 01:56:02;;;;;;;2.00;0.80;;;14.80;99.90;;;;;;5061832;28;21092;-67
2023/10/21 01:58:31;;;;;;;1.67;0.70;;;14.90;99.90;;;;;;5056363;28;20479;-68
2023/10/21 02:00:58;;;;;;;1.50;0.73;;;14.60;99.90;;;;;;5062258;28;20544;-67
2023/10/21 02:03:25;;;;;;;2.67;0.90;;;14.80;99.90;;;;;;5060879;28;20903;-67
2023/10/21 02:05:52;;;;;;;1.80;0.80;;;14.80;99.90;;;;;;5061162;28;20475;-68
2023/10/21 02:08:19;;;;;;;2.47;1.17;;;14.80;99.90;;;;;;5061225;28;20530;-65
2023/10/21 02:10:46;;;;;;;2.13;1.00;;;14.90;99.90;;;;;;5061562;28;20494;-66
2023/10/21 02:13:12;;;;;;;1.60;0.90;;;14.90;99.90;;;;;;5060299;28;20558;-65
2023/10/21 02:15:41;;;;;;;3.20;1.73;;;14.80;99.90;;;;;;5074844;28;20846;-65
2023/10/21 02:18:07;;;;;;;1.60;0.80;;;14.80;99.90;;;;;;5068815;28;20557;-64
2023/10/21 02:20:34;;;;;;;1.50;0.70;;;14.80;99.90;;;;;;5061270;28;20587;-66
2023/10/21 02:23:01;;;;;;;1.80;0.87;;;14.90;99.90;;;;;;5060455;28;20559;-65
2023/10/21 02:25:29;;;;;;;2.33;0.70;;;14.90;99.90;;;;;;5060019;28;20495;-68
2023/10/21 02:27:56;;;;;;;1.60;0.80;;;14.80;99.90;;;;;;5058422;28;20483;-66
2023/10/21 02:30:22;;;;;;;2.47;0.83;;;14.70;99.90;;;;;;5058786;28;20577;-64
2023/10/21 02:32:50;;;;;;;1.70;0.93;;;14.70;99.90;;;;;;5060198;28;20574;-67
2023/10/21 02:35:17;;;;;;;1.60;0.77;;;14.80;99.90;;;;;;5060700;28;20570;-64
2023/10/21 02:37:45;;;;;;;2.10;0.60;;;14.80;99.90;;;;;;5061004;28;20467;-62
2023/10/21 02:40:15;;;;;;;1.60;0.80;;;15.00;99.90;;;;;;5061077;28;20506;-61
2023/10/21 02:42:42;;;;;;;6.60;2.30;;;15.00;99.90;;;;;;5059847;28;20911;-62
2023/10/21 02:45:09;;;;;;;1.80;0.80;;;15.00;99.90;;;;;;5051309;28;21145;-61
2023/10/21 02:47:36;;;;;;;3.60;1.00;;;15.00;99.90;;;;;;5092361;28;20467;-66
2023/10/21 02:50:06;;;;;;;1.63;0.70;;;14.80;99.90;;;;;;5060440;28;20495;-66
2023/10/21 02:52:35;;;;;;;1.60;0.60;;;14.90;99.90;;;;;;5048680;28;20475;-66
2023/10/21 02:55:03;;;;;;;2.10;0.80;;;15.00;99.90;;;;;;5061239;28;20487;-64
2023/10/21 02:57:29;;;;;;;1.70;0.70;;;15.00;99.90;;;;;;5060157;28;20889;-61
2023/10/21 02:59:56;;;;;;;1.97;0.90;;;15.00;99.90;;;;;;5061118;28;20450;-62
2023/10/21 03:02:23;;;;;;;2.03;0.70;;;15.00;99.90;;;;;;5071262;28;20588;-61
2023/10/21 03:04:49;;;;;;;3.30;0.90;;;14.90;99.90;;;;;;5073507;28;20566;-62
2023/10/21 03:07:18;;;;;;;1.90;0.80;;;15.00;99.90;;;;;;5061186;28;20498;-62
2023/10/21 03:09:44;;;;;;;1.60;0.83;;;14.90;99.90;;;;;;5059777;28;20482;-63
2023/10/21 03:12:11;;;;;;;2.00;1.27;;;14.90;99.90;;;;;;5059984;28;20551;-62
2023/10/21 03:14:38;;;;;;;1.50;0.60;;;15.00;99.90;;;;;;5060054;28;20528;-62
2023/10/21 03:17:05;;;;;;;2.43;1.17;;;14.90;99.90;;;;;;5060182;28;20498;-63
2023/10/21 03:19:32;;;;;;;2.00;1.07;;;14.90;99.90;;;;;;5059959;28;20559;-62
2023/10/21 03:21:59;;;;;;;2.10;0.70;;;14.90;99.90;;;;;;5059346;28;20830;-62
2023/10/21 03:24:27;;;;;;;1.97;0.83;;;15.00;99.90;;;;;;5058751;28;20874;-62
2023/10/21 03:26:54;;;;;;;2.10;0.87;;;14.90;99.90;;;;;;5059029;28;20482;-63
2023/10/21 03:29:21;;;;;;;1.80;1.00;;;14.90;99.90;;;;;;5057360;28;20581;-66
2023/10/21 03:31:47;;;;;;;1.90;0.90;;;14.90;99.90;;;;;;5059531;28;20548;-65
2023/10/21 03:34:14;;;;;;;2.00;0.93;;;14.90;99.90;;;;;;5058530;28;20489;-66
2023/10/21 03:36:41;;;;;;;1.70;0.93;;;14.90;99.90;;;;;;5080523;28;20992;-67
2023/10/21 03:39:09;;;;;;;3.00;1.03;;;14.90;99.90;;;;;;5060832;28;20463;-66
2023/10/21 03:41:37;;;;;;;1.70;0.80;;;14.80;99.90;;;;;;5058844;28;20590;-65
2023/10/21 03:44:05;;;;;;;2.00;0.80;;;14.80;99.90;;;;;;5059433;28;20475;-67
2023/10/21 03:46:31;;;;;;;3.80;1.43;;;14.70;99.90;;;;;;5059238;28;20935;-66
2023/10/21 03:48:58;;;;;;;5.63;1.03;;;14.70;99.90;;;;;;5059780;28;20475;-65
2023/10/21 03:51:25;;;;;;;5.50;2.30;;;14.60;99.90;;;;;;5056788;28;20602;-65
2023/10/21 03:53:52;;;;;;;1.70;1.00;;;14.60;99.90;;;;;;5056720;28;20503;-65
2023/10/21 03:56:19;;;;;;;1.77;1.00;;;14.60;99.90;;;;;;5059955;28;21039;-66
2023/10/21 03:58:47;;;;;;;1.77;0.70;;;14.40;99.90;;;;;;5059027;28;20537;-65
2023/10/21 04:01:14;;;;;;;2.80;1.00;;;14.40;99.90;;;;;;5055228;28;20578;-65
2023/10/21 04:03:41;;;;;;;2.57;0.67;;;14.40;99.90;;;;;;5059160;28;20506;-66
2023/10/21 04:06:09;;;;;;;2.00;0.87;;;14.40;99.90;;;;;;5057735;28;20566;-66
2023/10/21 04:08:37;;;;;;;3.60;0.90;;;14.40;99.90;;;;;;5056839;28;20502;-65
2023/10/21 04:11:03;;;;;;;1.70;0.80;;;14.40;99.90;;;;;;5058543;28;20483;-65
2023/10/21 04:13:30;;;;;;;2.10;0.83;;;14.50;99.90;;;;;;5058455;28;20591;-65
2023/10/21 04:15:59;;;;;;;8.13;1.37;;;14.60;99.90;;;;;;5058438;28;21017;-68
2023/10/21 04:18:26;;;;;;;2.37;1.10;;;14.50;99.90;;;;;;5080606;28;20661;-67
2023/10/21 04:20:52;;;;;;;1.70;0.60;;;14.40;99.90;;;;;;5059895;28;20557;-65
2023/10/21 04:23:19;;;;;;;1.77;0.80;;;14.50;99.90;;;;;;5059141;28;20485;-65
2023/10/21 04:25:46;;;;;;;2.73;1.27;;;14.50;99.90;;;;;;5057558;28;20479;-66
2023/10/21 04:28:13;;;;;;;1.70;0.80;;;14.50;99.90;;;;;;5059296;28;20477;-66
2023/10/21 04:30:39;;;;;;;2.10;0.83;;;14.60;99.90;;;;;;5057864;28;20573;-66
2023/10/21 04:33:07;;;;;;;4.70;1.30;;;14.50;99.90;;;;;;5057654;28;21137;-69
2023/10/21 04:35:34;;;;;;;1.60;0.70;;;14.40;99.90;;;;;;5058303;28;20578;-66
2023/10/21 04:38:01;;;;;;;2.60;0.87;;;14.50;99.90;;;;;;5057129;28;20524;-65
2023/10/21 04:40:28;;;;;;;3.13;0.90;;;14.50;99.90;;;;;;5088981;28;20474;-68
2023/10/21 04:42:54;;;;;;;1.50;0.60;;;14.40;99.90;;;;;;5062539;28;20677;-69
2023/10/21 04:45:22;;;;;;;1.70;0.70;;;14.30;99.90;;;;;;5062302;28;20518;-66
2023/10/21 04:47:50;;;;;;;2.57;1.13;;;14.20;99.90;;;;;;5049500;28;20496;-66
2023/10/21 04:50:19;;;;;;;1.63;0.60;;;14.20;99.90;;;;;;5085133;28;20485;-67
2023/10/21 04:52:45;;;;;;;1.50;0.60;;;14.20;99.90;;;;;;5059692;28;20589;-65
2023/10/21 04:55:12;;;;;;;1.57;0.67;;;14.20;99.90;;;;;;5063434;28;20530;-66
2023/10/21 04:57:39;;;;;;;1.70;0.70;;;14.20;99.90;;;;;;5073209;28;20544;-65
2023/10/21 05:00:08;;;;;;;2.83;1.20;;;14.30;99.90;;;;;;5063056;28;21005;-68
2023/10/21 05:02:42;;;;;;;1.93;0.70;;;14.20;99.90;;;;;;5060578;28;20582;-66
2023/10/21 05:05:12;;;;;;;1.70;0.60;;;14.30;99.90;;;;;;5060071;28;20544;-67
2023/10/21 05:07:40;;;;;;;4.57;1.70;;;14.30;99.90;;;;;;5075268;28;20860;-66
2023/10/21 05:10:08;;;;;;;2.00;0.90;;;14.30;99.90;;;;;;5065989;28;20502;-65
2023/10/21 05:12:35;;;;;;;2.30;0.77;;;14.30;99.90;;;;;;5063874;28;20574;-65
2023/10/21 05:15:03;;;;;;;3.53;0.80;;;14.30;99.90;;;;;;5061707;28;21245;-64
2023/10/21 05:17:30;;;;;;;2.10;0.73;;;14.40;99.90;;;;;;5065896;28;21087;-67
2023/10/21 05:19:57;;;;;;;1.57;0.60;;;14.30;99.90;;;;;;5079294;28;20546;-67
2023/10/21 05:22:23;;;;;;;2.13;1.00;;;14.30;99.90;;;;;;5067952;28;20477;-64
2023/10/21 05:24:51;;;;;;;1.50;0.60;;;14.40;99.90;;;;;;5066296;28;20522;-64
2023/10/21 05:27:18;;;;;;;2.33;0.70;;;14.40;99.90;;;;;;5061782;28;20478;-65
2023/10/21 05:29:45;;;;;;;1.60;0.60;;;14.40;99.90;;;;;;5061258;28;20557;-65
2023/10/21 05:32:12;;;;;;;1.60;0.77;;;14.50;99.90;;;;;;5055066;28;20927;-65
2023/10/21 05:34:39;;;;;;;2.93;1.17;;;14.50;99.90;;;;;;5059759;28;20499;-65
2023/10/21 05:37:06;;;;;;;1.60;0.70;;;14.40;99.90;;;;;;5057098;28;20573;-64
2023/10/21 05:39:33;;;;;;;1.57;0.70;;;14.40;99.90;;;;;;5079193;28;20557;-66
2023/10/21 05:42:01;;;;;;;1.87;0.80;;;14.40;99.90;;;;;;5063452;28;20493;-66
2023/10/21 05:44:28;;;;;;;1.63;0.90;;;14.30;99.90;;;;;;5057169;28;20486;-66
2023/10/21 05:46:55;;;;;;;1.80;1.10;;;14.30;99.90;;;;;;5056504;28;20574;-65
2023/10/21 05:49:22;;;;;;;2.60;1.30;;;14.20;99.90;;;;;;5082616;28;20512;-67
2023/10/21 05:51:49;;;;;;;1.60;0.60;;;14.10;99.90;;;;;;5071534;28;20516;-62
2023/10/21 05:54:16;;;;;;;1.70;0.77;;;14.10;99.90;;;;;;5061676;28;20566;-66
2023/10/21 05:56:43;;;;;;;2.03;0.93;;;14.00;99.90;;;;;;5059879;28;20523;-66
2023/10/21 05:59:17;;;;;;;2.67;0.70;;;14.00;99.90;;;;;;5066767;28;21049;-64
2023/10/21 06:01:44;;;;;;;1.70;0.70;;;13.90;99.90;;;;;;5050473;28;20510;-64
2023/10/21 06:04:11;;;;;;;2.73;0.73;;;13.90;99.90;;;;;;5071954;28;20490;-65
2023/10/21 06:06:38;;;;;;;1.60;0.60;;;13.90;99.90;;;;;;5059100;28;21101;-63
2023/10/21 06:09:05;;;;;;;3.00;1.27;;;13.90;99.90;;;;;;5049388;28;20486;-64
2023/10/21 06:11:31;;;;;;;1.50;0.63;;;14.00;99.90;;;;;;5059690;28;20503;-65
2023/10/21 06:13:58;;;;;;;2.10;0.90;;;13.90;99.90;;;;;;5059373;28;20497;-65
2023/10/21 06:16:26;;;;;;;2.07;0.67;;;13.90;99.90;;;;;;5061028;28;20483;-65
2023/10/21 06:18:53;;;;;;;1.60;0.70;;;14.00;99.90;;;;;;5060905;28;20479;-64
2023/10/21 06:21:20;;;;;;;1.60;0.87;;;13.90;99.90;;;;;;5061112;28;20570;-65
2023/10/21 06:23:47;;;;;;;2.03;0.77;;;13.80;99.90;;;;;;5058314;28;20529;-64
2023/10/21 06:26:14;;;;;;;3.30;0.80;;;13.80;99.90;;;;;;5060883;28;20558;-65
2023/10/21 06:28:41;;;;;;;1.60;0.70;;;13.80;99.90;;;;;;5063537;28;20489;-65
2023/10/21 06:31:07;;;;;;;3.10;0.80;;;13.80;99.90;;;;;;5077293;28;23848;-65
2023/10/21 06:33:36;;;;;;;1.60;0.80;;;13.70;99.90;;;;;;5059142;28;20469;-65
2023/10/21 06:36:03;;;;;;;1.60;0.70;;;13.50;99.90;;;;;;5051824;28;20554;-65
2023/10/21 06:38:29;;;;;;;3.10;0.90;;;13.60;99.90;;;;;;5086399;28;20607;-63
2023/10/21 06:40:57;;;;;;;2.00;0.70;;;13.70;99.90;;;;;;5058465;28;20570;-64
2023/10/21 06:43:24;;;;;;;2.60;1.00;;;13.70;99.90;;;;;;5059871;28;20531;-63
2023/10/21 06:45:52;;;;;;;1.50;0.60;;;13.70;99.90;;;;;;5057914;28;20875;-64
2023/10/21 06:48:19;;;;;;;2.67;0.93;;;13.70;99.90;;;;;;5055982;28;21008;-64
2023/10/21 06:50:47;;;;;;;2.23;0.90;;;13.70;99.90;;;;;;5084309;28;20543;-64
2023/10/21 06:53:14;;;;;;;1.60;0.80;;;13.70;99.90;;;;;;5057856;28;20479;-64
2023/10/21 06:55:42;;;;;;;1.50;0.67;;;13.80;99.90;;;;;;5059173;28;20471;-65
2023/10/21 06:58:09;;;;;;;2.47;0.90;;;13.80;99.90;;;;;;5057858;28;20489;-66
2023/10/21 07:00:36;;;;;;;2.17;0.70;;;13.90;99.90;;;;;;5061125;28;20481;-65
2023/10/21 07:03:03;;;;;;;7.23;0.90;;;13.80;99.90;;;;;;5082903;28;20473;-65
2023/10/21 07:05:30;;;;;;;3.00;0.90;;;13.80;99.90;;;;;;5074553;28;20574;-63
2023/10/21 07:07:58;;;;;;;3.03;1.20;;;14.00;99.90;;;;;;5060786;28;21092;-64
2023/10/21 07:10:27;;;;;;;6.03;0.90;;;14.00;99.90;;;;;;5059567;28;20478;-64
2023/10/21 07:12:53;;;;;;;2.20;0.80;;;14.20;99.90;;;;;;5060964;28;20528;-63
2023/10/21 07:15:20;;;;;;;1.83;0.77;;;14.60;99.90;;;;;;5059559;28;20998;-65
2023/10/21 07:17:47;;;;;;;4.03;1.63;;;15.40;99.90;;;;;;5027616;28;20583;-63
2023/10/21 07:20:14;;;;;;;1.87;0.80;;;15.80;99.90;;;;;;5080572;28;20580;-65
2023/10/21 07:22:43;;;;;;;4.70;1.10;;;15.50;99.90;;;;;;5059028;28;20581;-65
2023/10/21 07:25:12;;;;;;;2.10;0.90;;;15.60;99.90;;;;;;5057474;28;20580;-63
2023/10/21 07:27:39;;;;;;;3.83;1.13;;;15.60;99.90;;;;;;5082813;28;21312;-65
2023/10/21 07:30:07;;;;;;;1.80;0.87;;;15.40;99.90;;;;;;5060242;28;21193;-65
2023/10/21 07:32:34;;;;;;;2.13;0.80;;;15.80;99.90;;;;;;5059623;28;20471;-65
2023/10/21 07:35:00;;;;;;;1.90;0.73;;;16.10;99.90;;;;;;5057846;28;20498;-66
2023/10/21 07:37:27;;;;;;;2.17;1.00;;;16.20;99.90;;;;;;5053601;28;20578;-63
2023/10/21 07:39:54;;;;;;;4.60;1.63;;;16.80;99.90;;;;;;5059993;28;20506;-62
2023/10/21 07:42:22;;;;;;;2.30;0.67;;;17.30;99.90;;;;;;5057938;28;20607;-63
2023/10/21 07:44:49;;;;;;;2.30;1.17;;;17.40;99.90;;;;;;5059038;28;20483;-63
2023/10/21 07:47:16;;;;;;;2.03;0.87;;;18.20;99.70;;;;;;5055759;28;20991;-63
2023/10/21 07:49:42;;;;;;;2.53;1.00;;;18.70;98.00;;;;;;5058763;28;20479;-64
2023/10/21 07:52:09;;;;;;;2.90;0.93;;;18.90;97.50;;;;;;5057234;28;20528;-64
2023/10/21 07:54:37;;;;;;;2.17;0.73;;;19.10;97.00;;;;;;5049413;28;20512;-64
2023/10/21 07:57:05;;;;;;;2.60;1.00;;;19.30;96.70;;;;;;5085968;28;20471;-63
2023/10/21 07:59:34;;;;;;;2.87;0.90;;;19.80;96.60;;;;;;5058946;28;21227;-63
2023/10/21 08:02:01;;;;;;;3.20;0.90;;;19.80;95.70;;;;;;5058463;28;20533;-64
2023/10/21 08:04:27;;;;;;;1.97;0.70;;;19.70;95.40;;;;;;5055435;28;20481;-64
2023/10/21 08:06:55;;;;;;;4.17;1.20;;;19.50;95.00;;;;;;5057760;28;20475;-63
2023/10/21 08:09:22;;;;;;;1.70;0.90;;;19.40;95.10;;;;;;5066372;28;20566;-64
2023/10/21 08:11:49;;;;;;;3.60;0.80;;;19.30;95.10;;;;;;5074705;28;20985;-64
2023/10/21 08:14:16;;;;;;;2.13;1.20;;;19.00;95.30;;;;;;5059242;28;20519;-64
2023/10/21 08:16:44;;;;;;;2.30;0.73;;;18.90;96.10;;;;;;5046645;28;20966;-65
2023/10/21 08:19:11;;;;;;;2.23;0.70;;;18.50;96.00;;;;;;5058250;28;20570;-63
2023/10/21 08:21:38;;;;;;;1.70;0.90;;;18.20;95.70;;;;;;5056214;28;20524;-64
2023/10/21 08:24:07;;;;;;;1.60;0.80;;;17.90;96.50;;;;;;5059449;28;20964;-62
2023/10/21 08:26:34;;;;;;;2.07;1.20;;;17.80;96.60;;;;;;5058929;28;20449;-62
2023/10/21 08:29:02;;;;;;;5.00;1.10;;;17.80;97.80;;;;;;5059966;28;20462;-62
2023/10/21 08:31:29;;;;;;;2.40;1.07;;;17.60;97.60;;;;;;5057595;28;20483;-63
2023/10/21 08:33:57;;;;;;;7.20;1.60;;;17.40;98.20;;;;;;5055486;28;21158;-63
2023/10/21 08:36:26;;;;;;;3.80;1.07;;;17.00;98.60;;;;;;5058334;28;20652;-64
2023/10/21 08:38:53;;;;;;;3.00;0.83;;;17.00;98.90;;;;;;5065033;28;20483;-63
2023/10/21 08:41:20;;;;;;;2.90;0.80;;;16.80;98.40;;;;;;5071875;28;20470;-64
2023/10/21 08:43:49;;;;;;;2.80;1.00;;;17.10;99.90;;;;;;5059978;28;20479;-63
2023/10/21 08:46:17;;;;;;;4.83;1.20;;;17.10;99.90;;;;;;5058188;28;21004;-63
2023/10/21 08:48:48;;;;;;;2.43;1.30;;;17.00;99.20;;;;;;5081139;28;20528;-64
2023/10/21 08:51:21;;;;;;;2.43;0.70;;;16.90;99.20;;;;;;5046713;28;20465;-63
2023/10/21 08:53:52;;;;;;;2.13;0.70;;;16.70;99.30;;;;;;5057192;28;20470;-64
2023/10/21 08:56:19;;;;;;;2.47;0.90;;;16.60;99.60;;;;;;5046033;28;20576;-64
2023/10/21 08:58:46;;;;;;;1.70;0.70;;;16.50;99.70;;;;;;5054278;28;20887;-63
2023/10/21 09:01:14;;;;;;;3.93;1.13;;;16.60;99.50;;;;;;5057107;28;21013;-62
2023/10/21 09:03:41;;;;;;;3.20;0.90;;;16.70;99.90;;;;;;5054025;28;20798;-62
2023/10/21 09:06:11;;;;;;;3.27;0.83;;;16.10;98.30;;;;;;5057992;28;20472;-62
2023/10/21 09:08:41;;;;;;;1.90;0.90;;;16.10;98.60;;;;;;5054932;28;20537;-64
2023/10/21 09:11:10;;;;;;;2.47;0.70;;;16.30;99.60;;;;;;5059208;28;20483;-62
2023/10/21 09:13:39;;;;;;;3.60;0.87;;;16.30;99.90;;;;;;5056344;28;21350;-65
2023/10/21 09:16:20;;;;;;;4.00;0.90;;;16.00;99.20;;;;;;5059227;28;20544;-64
2023/10/21 09:18:57;;;;;;;4.83;0.80;;;16.20;99.20;;;;;;5057276;28;20467;-65
2023/10/21 09:21:32;;;;;;;3.27;1.00;;;16.30;99.60;;;;;;5045181;28;21367;-62
2023/10/21 09:24:01;;;;;;;2.30;0.90;;;16.10;98.90;;;;;;5060940;28;20479;-62
2023/10/21 09:26:35;;;;;;;6.23;1.27;;;16.10;98.80;;;;;;5061997;28;20476;-63
2023/10/21 09:29:06;;;;;;;2.27;1.10;;;16.00;99.10;;;;;;5062462;28;20562;-63
2023/10/21 09:31:47;;;;;;;2.27;0.70;;;16.00;99.90;;;;;;5058196;28;20543;-62
2023/10/21 09:34:24;;;;;;;2.23;0.77;;;16.10;99.40;;;;;;5060958;28;20511;-62
2023/10/21 09:36:52;;;;;;;3.30;0.90;;;16.10;99.50;;;;;;5059262;28;20498;-63
2023/10/21 09:39:21;;;;;;;3.20;1.73;;;16.00;99.90;;;;;;5061711;28;20920;-65
2023/10/21 09:41:48;;;;;;;3.30;0.70;;;16.00;99.00;;;;;;5060909;28;20556;-63
2023/10/21 09:44:16;;;;;;;1.70;0.70;;;16.00;99.10;;;;;;5054549;28;20542;-63
2023/10/21 09:46:44;;;;;;;1.50;0.60;;;15.90;98.70;;;;;;5061694;28;20590;-63
2023/10/21 09:49:12;;;;;;;4.47;1.40;;;16.30;99.90;;;;;;5061518;28;20502;-62
2023/10/21 09:51:51;;;;;;;2.77;1.33;;;16.30;99.30;;;;;;5058414;28;20489;-63
2023/10/21 09:54:32;;;;;;;3.07;0.80;;;16.30;99.70;;;;;;5062294;28;20481;-63
2023/10/21 09:57:00;;;;;;;1.93;0.83;;;16.50;99.90;;;;;;5058360;28;20536;-62
2023/10/21 09:59:29;;;;;;;1.87;0.80;;;16.70;99.30;;;;;;5060760;28;20591;-65
2023/10/21 10:01:58;;;;;;;1.93;0.93;;;16.90;98.60;;;;;;5047169;28;20516;-65
2023/10/21 10:04:27;;;;;;;2.20;1.00;;;16.90;98.90;;;;;;5061203;28;20556;-65
2023/10/21 10:06:59;;;;;;;2.77;1.30;;;17.00;98.80;;;;;;5060882;28;20483;-67
2023/10/21 10:09:28;;;;;;;2.60;0.70;;;16.90;97.50;;;;;;5059642;28;20811;-66
2023/10/21 10:11:59;;;;;;;2.90;0.80;;;16.80;98.30;;;;;;5057914;28;20571;-65
2023/10/21 10:14:28;;;;;;;2.80;1.30;;;16.80;98.00;;;;;;5087189;28;20949;-68
2023/10/21 10:16:55;;;;;;;3.03;1.33;;;16.80;98.10;;;;;;5075660;28;20673;-66
2023/10/21 10:19:37;;;;;;;4.10;0.87;;;16.80;98.50;;;;;;5060309;28;21021;-65
2023/10/21 10:22:18;;;;;;;1.70;0.80;;;16.90;99.20;;;;;;5050204;28;20847;-65
2023/10/21 10:24:51;;;;;;;2.80;0.97;;;16.90;98.00;;;;;;5032828;28;20925;-66
2023/10/21 10:27:18;;;;;;;3.37;1.20;;;16.70;97.50;;;;;;5061594;28;20482;-66
2023/10/21 10:29:50;;;;;;;2.47;0.87;;;16.80;97.40;;;;;;5060678;28;20482;-65
2023/10/21 10:32:20;;;;;;;2.80;1.00;;;16.90;98.40;;;;;;5061389;28;20478;-69
2023/10/21 10:34:52;;;;;;;2.57;0.90;;;16.80;97.70;;;;;;5058852;28;20473;-67
2023/10/21 10:37:31;;;;;;;5.90;1.60;;;16.60;96.70;;;;;;5060872;28;20575;-66
2023/10/21 10:39:59;;;;;;;3.70;1.33;;;16.50;96.10;;;;;;5049299;28;20567;-67
2023/10/21 10:42:28;;;;;;;4.40;1.13;;;16.70;97.10;;;;;;5081267;28;20561;-67
2023/10/21 10:44:55;;;;;;;2.67;0.80;;;16.80;96.10;;;;;;5060134;28;21028;-66
2023/10/21 10:47:23;;;;;;;5.40;1.33;;;16.80;95.80;;;;;;5060322;28;20510;-65
2023/10/21 10:49:56;;;;;;;2.00;1.00;;;16.90;95.80;;;;;;5060029;28;20541;-66
2023/10/21 10:52:27;;;;;;;1.97;0.80;;;17.00;95.90;;;;;;5058311;28;20543;-65
2023/10/21 10:54:54;;;;;;;3.03;1.13;;;17.10;95.20;;;;;;5081231;28;20980;-66
2023/10/21 10:57:23;;;;;;;1.57;0.57;;;17.00;95.70;;;;;;5059957;28;20578;-67
2023/10/21 10:59:50;;;;;;;3.13;1.00;;;16.80;94.80;;;;;;5059977;28;20502;-68
2023/10/21 11:02:17;;;;;;;1.70;0.70;;;16.90;95.00;;;;;;5060637;28;20819;-66
2023/10/21 11:04:47;;;;;;;2.00;0.90;;;16.90;94.90;;;;;;5063159;28;20475;-66
2023/10/21 11:07:14;;;;;;;3.90;1.23;;;16.90;95.00;;;;;;5065552;28;20567;-66
2023/10/21 11:09:40;;;;;;;5.67;1.37;;;16.60;93.80;;;;;;5058807;28;20596;-67
2023/10/21 11:12:07;;;;;;;2.97;1.20;;;17.00;93.80;;;;;;5046260;28;20456;-66
2023/10/21 11:14:36;;;;;;;4.33;0.70;;;16.80;93.80;;;;;;5084760;28;20574;-65
2023/10/21 11:17:04;;;;;;;2.90;0.60;;;17.00;94.10;;;;;;5060598;28;21094;-67
2023/10/21 11:19:31;;;;;;;3.70;1.47;;;16.90;93.90;;;;;;5061199;28;20506;-66
2023/10/21 11:21:58;;;;;;;2.23;1.43;;;16.70;93.70;;;;;;5058636;28;20943;-66
2023/10/21 11:24:26;;;;;;;5.30;1.20;;;16.90;94.80;;;;;;5058111;28;20559;-65
2023/10/21 11:26:53;;;;;;;2.40;1.30;;;16.90;94.90;;;;;;5079215;28;20453;-65
2023/10/21 11:29:22;;;;;;;2.20;0.80;;;16.90;95.10;;;;;;5056125;28;20485;-66
2023/10/21 11:31:50;;;;;;;2.20;0.73;;;16.80;94.60;;;;;;5057688;28;20486;-66
2023/10/21 11:34:18;;;;;;;4.07;1.20;;;17.10;95.20;;;;;;5054817;28;20562;-67
2023/10/21 11:36:48;;;;;;;2.50;0.80;;;17.10;95.30;;;;;;5058743;28;20494;-66
2023/10/21 11:39:16;;;;;;;4.10;1.53;;;17.00;94.30;;;;;;5057862;28;20510;-67
2023/10/21 11:41:44;;;;;;;4.00;1.30;;;17.00;94.90;;;;;;5057562;28;20491;-69
2023/10/21 11:44:11;;;;;;;3.60;1.33;;;16.90;94.70;;;;;;5059662;28;20487;-65
2023/10/21 11:46:38;;;;;;;6.50;1.90;;;16.90;94.40;;;;;;5058910;28;20573;-67
2023/10/21 11:49:13;;;;;;;3.10;0.60;;;16.70;94.40;;;;;;5060741;28;20873;-63
2023/10/21 11:51:41;;;;;;;2.00;0.80;;;16.70;94.50;;;;;;5059052;28;20557;-62
2023/10/21 11:54:19;;;;;;;2.13;0.83;;;16.60;93.80;;;;;;5058657;28;21029;-62
2023/10/21 11:57:33;;;;;;;5.83;1.10;;;16.90;95.10;;;;;;5058469;28;20807;-63
2023/10/21 12:06:07;;;;;;;6.27;1.30;;;17.80;95.60;;;;;;5056347;28;20907;-63
2023/10/21 12:12:14;;;;;;;4.20;1.00;;;18.20;94.10;;;;;;5048587;28;20461;-63
2023/10/21 12:20:42;;;;;;;3.50;1.07;;;17.60;93.70;;;;;;5057057;28;20489;-62
2023/10/21 12:23:37;;;;;;;3.10;0.87;;;17.40;93.80;;;;;;5036783;28;20492;-62
2023/10/21 12:34:29;;;;;;;4.10;1.00;;;17.50;93.90;;;;;;5056576;28;20500;-62
2023/10/21 12:39:45;;;;;;;1.90;1.40;;;17.80;93.60;;;;;;5064217;28;20483;-63
2023/10/21 12:42:21;;;;;;;6.30;1.00;;;18.00;93.40;;;;;;5082277;28;20491;-64
2023/10/21 12:44:51;;;;;;;4.63;1.40;;;18.10;92.80;;;;;;5074632;28;20590;-61
2023/10/21 12:47:17;;;;;;;7.80;1.00;;;18.10;92.80;;;;;;5057844;28;20570;-62
2023/10/21 12:49:46;;;;;;;5.10;0.90;;;18.20;92.30;;;;;;5055911;28;20459;-63
2023/10/21 12:52:12;;;;;;;2.20;1.10;;;18.40;91.70;;;;;;5052876;28;20570;-63
2023/10/21 12:54:41;;;;;;;2.53;1.13;;;18.10;91.60;;;;;;5054138;28;20518;-61
2023/10/21 12:57:10;;;;;;;3.97;0.90;;;18.10;90.80;;;;;;5058367;28;20933;-64
2023/10/21 12:59:37;;;;;;;1.83;1.03;;;18.30;92.10;;;;;;5057965;28;20482;-62
2023/10/21 13:02:07;;;;;;;6.47;1.67;;;18.30;91.00;;;;;;5059764;28;21196;-63
2023/10/21 13:04:35;;;;;;;7.03;1.23;;;18.30;91.00;;;;;;5063344;28;20958;-63
2023/10/21 13:07:04;;;;;;;3.63;0.80;;;18.30;91.60;;;;;;5069724;28;21080;-63
2023/10/21 13:09:31;;;;;;;5.20;1.53;;;18.30;91.70;;;;;;5069212;28;20479;-64
2023/10/21 13:12:00;;;;;;;5.33;1.23;;;18.10;90.50;;;;;;5059508;28;20510;-62
2023/10/21 13:14:29;;;;;;;3.07;1.07;;;18.20;91.20;;;;;;5060727;28;21036;-62
2023/10/21 13:16:56;;;;;;;3.60;0.80;;;18.40;91.30;;;;;;5081381;28;20473;-61
2023/10/21 13:19:25;;;;;;;4.20;1.20;;;18.40;91.90;;;;;;5060678;28;20486;-61